Strona główna
METAR-TAF:

METAR-TAF

Lotnisko :

Port lotniczy Łódź-Lublinek

Łódź, Polska

Szerokość geograficzna: 51-43-19N, Długość geograficzna: 019-23-53E, wysokość: 184 m

Aktualna obserwacja pogody

Raport powstał 14 minut temu, godzina 16:30 UTC
Wiatr 10 kt od północ
Temperatura 22°C
Wilgotność 43%
Ciśnienie 1021 hPa
Widzialność 10 km lub więcej
Brak chmur poniżej 1500 m i brak chmur cumulonimbus

METAR: EPLL 231630Z 01010KT CAVOK 22/09 Q1021

czas: 18:44 (16:44 UTC)

Prognoza

Raport powstał 5 godziny i 14 minut temu, godzina 11:30 UTC
Prognoza ważna od 23 godzina 12 UTC do 24 godzina 12 UTC
Wiatr 12 kt od wschodnio-północny wschód
Widzialność 10 km lub więcej
Brak chmur poniżej 1500 m i brak chmur cumulonimbus
Prawdopodobieństwo 40% :
Przejściowo
od 23 godzina 12 UTC do 23 godzina 16 UTC
Przerywane chmury na wysokości 4000 ft, Cumulonimbus.
przelotny opad deszczu

TAF: EPLL 231130Z 2312/2412 06012KT CAVOK PROB40 TEMPO 2312/2316 SHRA BKN040CB

Obserwacja i prognoza pogody dla ponad 4000 lotnisk (raport METAR i TAF).

Dostępne stacje oznaczono żółtymi i czerwonymi punktami na mapie.

Najedź kursorem aby zobaczyć nazwę stacji.

Kliknij aby zobaczyć obserwacje i prognozy pogody.

Aby zmienić mapę: kliknij na zielony przycisk z czarnym krzyżykiem, aby powiększyć; na zielony przycisk z myślnikiem, aby pomniejszyć; na zielone strzałki, aby przejść do map sąsiednich.


METAR-TAF: